sensor_id;sensor_type;location;lat;lon;timestamp;temperature;humidity
15617;DHT22;7908;51.688;7.130;2023-04-06T00:00:53;-0.20;99.90
15617;DHT22;7908;51.688;7.130;2023-04-06T00:03:22;-0.30;99.90
15617;DHT22;7908;51.688;7.130;2023-04-06T00:05:51;-0.30;99.90
15617;DHT22;7908;51.688;7.130;2023-04-06T00:08:20;-0.30;99.90
15617;DHT22;7908;51.688;7.130;2023-04-06T00:10:50;-0.40;99.90
15617;DHT22;7908;51.688;7.130;2023-04-06T00:13:19;-0.50;99.90
15617;DHT22;7908;51.688;7.130;2023-04-06T00:15:48;-0.50;99.90
15617;DHT22;7908;51.688;7.130;2023-04-06T00:18:18;-0.50;99.90
15617;DHT22;7908;51.688;7.130;2023-04-06T00:20:47;-0.50;99.90
15617;DHT22;7908;51.688;7.130;2023-04-06T00:23:18;-0.50;99.90
15617;DHT22;7908;51.688;7.130;2023-04-06T00:25:47;-0.50;99.90
15617;DHT22;7908;51.688;7.130;2023-04-06T00:28:15;-0.50;99.90
15617;DHT22;7908;51.688;7.130;2023-04-06T00:30:44;-0.50;99.90
15617;DHT22;7908;51.688;7.130;2023-04-06T00:33:13;-0.50;99.90
15617;DHT22;7908;51.688;7.130;2023-04-06T00:35:43;-0.50;99.90
15617;DHT22;7908;51.688;7.130;2023-04-06T00:38:12;-0.60;99.90
15617;DHT22;7908;51.688;7.130;2023-04-06T00:40:40;-0.60;99.90
15617;DHT22;7908;51.688;7.130;2023-04-06T00:43:11;-0.60;99.90
15617;DHT22;7908;51.688;7.130;2023-04-06T00:45:41;-0.60;99.90
15617;DHT22;7908;51.688;7.130;2023-04-06T00:48:10;-0.60;99.90
15617;DHT22;7908;51.688;7.130;2023-04-06T00:50:39;-0.60;99.90
15617;DHT22;7908;51.688;7.130;2023-04-06T00:53:09;-0.60;99.90
15617;DHT22;7908;51.688;7.130;2023-04-06T00:55:39;-0.70;99.90
15617;DHT22;7908;51.688;7.130;2023-04-06T00:58:07;-0.70;99.90
15617;DHT22;7908;51.688;7.130;2023-04-06T01:00:36;-0.70;99.90
15617;DHT22;7908;51.688;7.130;2023-04-06T01:03:05;-0.80;99.90
15617;DHT22;7908;51.688;7.130;2023-04-06T01:05:34;-0.80;99.90
15617;DHT22;7908;51.688;7.130;2023-04-06T01:08:09;-0.80;99.90
15617;DHT22;7908;51.688;7.130;2023-04-06T01:10:38;-0.70;99.90
15617;DHT22;7908;51.688;7.130;2023-04-06T01:13:07;-0.80;99.90
15617;DHT22;7908;51.688;7.130;2023-04-06T01:15:35;-0.80;99.90
15617;DHT22;7908;51.688;7.130;2023-04-06T01:18:07;-0.80;99.90
15617;DHT22;7908;51.688;7.130;2023-04-06T01:20:37;-0.80;99.90
15617;DHT22;7908;51.688;7.130;2023-04-06T01:23:07;-0.90;99.90
15617;DHT22;7908;51.688;7.130;2023-04-06T01:25:36;-1.00;99.90
15617;DHT22;7908;51.688;7.130;2023-04-06T01:28:05;-1.00;99.90
15617;DHT22;7908;51.688;7.130;2023-04-06T01:30:33;-1.10;99.90
15617;DHT22;7908;51.688;7.130;2023-04-06T01:33:02;-1.00;99.90
15617;DHT22;7908;51.688;7.130;2023-04-06T01:35:31;-1.00;99.90
15617;DHT22;7908;51.688;7.130;2023-04-06T01:38:00;-1.00;99.90
15617;DHT22;7908;51.688;7.130;2023-04-06T01:40:30;-1.10;99.90
15617;DHT22;7908;51.688;7.130;2023-04-06T01:42:59;-1.10;99.90
15617;DHT22;7908;51.688;7.130;2023-04-06T01:45:27;-1.10;99.90
15617;DHT22;7908;51.688;7.130;2023-04-06T01:47:56;-1.10;99.90
15617;DHT22;7908;51.688;7.130;2023-04-06T01:50:25;-1.10;99.90
15617;DHT22;7908;51.688;7.130;2023-04-06T01:52:54;-1.10;99.90
15617;DHT22;7908;51.688;7.130;2023-04-06T01:55:23;-1.10;99.90
15617;DHT22;7908;51.688;7.130;2023-04-06T01:57:53;-1.20;99.90
15617;DHT22;7908;51.688;7.130;2023-04-06T02:00:22;-1.20;99.90
15617;DHT22;7908;51.688;7.130;2023-04-06T02:02:51;-1.20;99.90
15617;DHT22;7908;51.688;7.130;2023-04-06T02:05:19;-1.20;99.90
15617;DHT22;7908;51.688;7.130;2023-04-06T02:07:48;-1.30;99.90
15617;DHT22;7908;51.688;7.130;2023-04-06T02:10:17;-1.30;99.90
15617;DHT22;7908;51.688;7.130;2023-04-06T02:12:46;-1.30;99.90
15617;DHT22;7908;51.688;7.130;2023-04-06T02:15:16;-1.30;99.90
15617;DHT22;7908;51.688;7.130;2023-04-06T02:17:45;-1.30;99.90
15617;DHT22;7908;51.688;7.130;2023-04-06T02:20:14;-1.30;99.90
15617;DHT22;7908;51.688;7.130;2023-04-06T02:22:43;-1.30;99.90
15617;DHT22;7908;51.688;7.130;2023-04-06T02:25:12;-1.20;99.90
15617;DHT22;7908;51.688;7.130;2023-04-06T02:27:40;-1.30;99.90
15617;DHT22;7908;51.688;7.130;2023-04-06T02:30:10;-1.30;99.90
15617;DHT22;7908;51.688;7.130;2023-04-06T02:32:40;-1.30;99.90
15617;DHT22;7908;51.688;7.130;2023-04-06T02:35:09;-1.30;99.90
15617;DHT22;7908;51.688;7.130;2023-04-06T02:37:38;-1.30;99.90
15617;DHT22;7908;51.688;7.130;2023-04-06T02:40:08;-1.30;99.90
15617;DHT22;7908;51.688;7.130;2023-04-06T02:42:37;-1.30;99.90
15617;DHT22;7908;51.688;7.130;2023-04-06T02:45:06;-1.40;99.90
15617;DHT22;7908;51.688;7.130;2023-04-06T02:47:35;-1.40;99.90
15617;DHT22;7908;51.688;7.130;2023-04-06T02:50:06;-1.50;99.90
15617;DHT22;7908;51.688;7.130;2023-04-06T02:52:35;-1.50;99.90
15617;DHT22;7908;51.688;7.130;2023-04-06T02:55:05;-1.50;99.90
15617;DHT22;7908;51.688;7.130;2023-04-06T02:57:34;-1.50;99.90
15617;DHT22;7908;51.688;7.130;2023-04-06T03:00:04;-1.50;99.90
15617;DHT22;7908;51.688;7.130;2023-04-06T03:02:33;-1.60;99.90
15617;DHT22;7908;51.688;7.130;2023-04-06T03:05:03;-1.60;99.90
15617;DHT22;7908;51.688;7.130;2023-04-06T03:07:33;-1.60;99.90
15617;DHT22;7908;51.688;7.130;2023-04-06T03:10:02;-1.60;99.90
15617;DHT22;7908;51.688;7.130;2023-04-06T03:12:31;-1.60;99.90
15617;DHT22;7908;51.688;7.130;2023-04-06T03:15:00;-1.60;99.90
15617;DHT22;7908;51.688;7.130;2023-04-06T03:17:28;-1.70;99.90
15617;DHT22;7908;51.688;7.130;2023-04-06T03:19:57;-1.70;99.90
15617;DHT22;7908;51.688;7.130;2023-04-06T03:22:26;-1.70;99.90
15617;DHT22;7908;51.688;7.130;2023-04-06T03:24:56;-1.70;99.90
15617;DHT22;7908;51.688;7.130;2023-04-06T03:27:29;-1.70;99.90
15617;DHT22;7908;51.688;7.130;2023-04-06T03:29:58;-1.70;99.90
15617;DHT22;7908;51.688;7.130;2023-04-06T03:32:26;-1.70;99.90
15617;DHT22;7908;51.688;7.130;2023-04-06T03:34:55;-1.80;99.90
15617;DHT22;7908;51.688;7.130;2023-04-06T03:37:24;-1.80;99.90
15617;DHT22;7908;51.688;7.130;2023-04-06T03:39:52;-1.80;99.90
15617;DHT22;7908;51.688;7.130;2023-04-06T03:42:23;-1.80;99.90
15617;DHT22;7908;51.688;7.130;2023-04-06T03:44:51;-1.80;99.90
15617;DHT22;7908;51.688;7.130;2023-04-06T03:47:20;-1.90;99.90
15617;DHT22;7908;51.688;7.130;2023-04-06T03:49:50;-1.90;99.90
15617;DHT22;7908;51.688;7.130;2023-04-06T03:52:18;-1.80;99.90
15617;DHT22;7908;51.688;7.130;2023-04-06T03:54:49;-1.90;99.90
15617;DHT22;7908;51.688;7.130;2023-04-06T03:57:18;-1.80;99.90
15617;DHT22;7908;51.688;7.130;2023-04-06T03:59:48;-1.80;99.90
15617;DHT22;7908;51.688;7.130;2023-04-06T04:02:17;-1.90;99.90
15617;DHT22;7908;51.688;7.130;2023-04-06T04:04:46;-1.90;99.90
15617;DHT22;7908;51.688;7.130;2023-04-06T04:07:15;-1.90;99.90
15617;DHT22;7908;51.688;7.130;2023-04-06T04:09:44;-1.90;99.90
15617;DHT22;7908;51.688;7.130;2023-04-06T04:12:13;-1.90;99.90
15617;DHT22;7908;51.688;7.130;2023-04-06T04:14:44;-1.90;99.90
15617;DHT22;7908;51.688;7.130;2023-04-06T04:17:14;-1.90;99.90
15617;DHT22;7908;51.688;7.130;2023-04-06T04:19:43;-1.90;99.90
15617;DHT22;7908;51.688;7.130;2023-04-06T04:22:11;-1.90;99.90
15617;DHT22;7908;51.688;7.130;2023-04-06T04:24:40;-1.90;99.90
15617;DHT22;7908;51.688;7.130;2023-04-06T04:27:09;-1.90;99.90
15617;DHT22;7908;51.688;7.130;2023-04-06T04:29:38;-1.90;99.90
15617;DHT22;7908;51.688;7.130;2023-04-06T04:32:06;-2.00;99.90
15617;DHT22;7908;51.688;7.130;2023-04-06T04:34:37;-2.00;99.90
15617;DHT22;7908;51.688;7.130;2023-04-06T04:37:07;-2.00;99.90
15617;DHT22;7908;51.688;7.130;2023-04-06T04:39:36;-2.00;99.90
15617;DHT22;7908;51.688;7.130;2023-04-06T04:42:05;-2.00;99.90
15617;DHT22;7908;51.688;7.130;2023-04-06T04:44:34;-2.00;99.90
15617;DHT22;7908;51.688;7.130;2023-04-06T04:47:03;-2.00;99.90
15617;DHT22;7908;51.688;7.130;2023-04-06T04:49:32;-2.00;99.90
15617;DHT22;7908;51.688;7.130;2023-04-06T04:52:02;-2.00;99.90
15617;DHT22;7908;51.688;7.130;2023-04-06T04:54:31;-2.00;99.90
15617;DHT22;7908;51.688;7.130;2023-04-06T04:56:59;-2.00;99.90
15617;DHT22;7908;51.688;7.130;2023-04-06T04:59:29;-2.00;99.90
15617;DHT22;7908;51.688;7.130;2023-04-06T05:01:58;-2.00;99.90
15617;DHT22;7908;51.688;7.130;2023-04-06T05:04:27;-2.00;99.90
15617;DHT22;7908;51.688;7.130;2023-04-06T05:07:04;-2.00;99.90
15617;DHT22;7908;51.688;7.130;2023-04-06T05:09:33;-2.00;99.90
15617;DHT22;7908;51.688;7.130;2023-04-06T05:12:02;-2.10;99.90
15617;DHT22;7908;51.688;7.130;2023-04-06T05:14:31;-2.10;99.90
15617;DHT22;7908;51.688;7.130;2023-04-06T05:16:59;-2.10;99.90
15617;DHT22;7908;51.688;7.130;2023-04-06T05:19:29;-2.00;99.90
15617;DHT22;7908;51.688;7.130;2023-04-06T05:21:58;-2.00;99.90
15617;DHT22;7908;51.688;7.130;2023-04-06T05:24:28;-2.00;99.90
15617;DHT22;7908;51.688;7.130;2023-04-06T05:26:57;-2.10;99.90
15617;DHT22;7908;51.688;7.130;2023-04-06T05:29:27;-2.00;99.90
15617;DHT22;7908;51.688;7.130;2023-04-06T05:31:55;-1.90;99.90
15617;DHT22;7908;51.688;7.130;2023-04-06T05:34:24;-1.90;99.90
15617;DHT22;7908;51.688;7.130;2023-04-06T05:36:53;-1.80;99.90
15617;DHT22;7908;51.688;7.130;2023-04-06T05:39:22;-1.80;99.90
15617;DHT22;7908;51.688;7.130;2023-04-06T05:41:52;-1.80;99.90
15617;DHT22;7908;51.688;7.130;2023-04-06T05:44:21;-1.80;99.90
15617;DHT22;7908;51.688;7.130;2023-04-06T05:46:50;-1.70;99.90
15617;DHT22;7908;51.688;7.130;2023-04-06T05:49:18;-1.70;99.90
15617;DHT22;7908;51.688;7.130;2023-04-06T05:51:47;-1.70;99.90
15617;DHT22;7908;51.688;7.130;2023-04-06T05:54:16;-1.60;99.90
15617;DHT22;7908;51.688;7.130;2023-04-06T05:56:45;-1.60;99.90
15617;DHT22;7908;51.688;7.130;2023-04-06T05:59:15;-1.50;99.90
15617;DHT22;7908;51.688;7.130;2023-04-06T06:01:44;-1.40;99.90
15617;DHT22;7908;51.688;7.130;2023-04-06T06:04:12;-1.30;99.90
15617;DHT22;7908;51.688;7.130;2023-04-06T06:06:41;-1.20;99.90
15617;DHT22;7908;51.688;7.130;2023-04-06T06:09:10;-1.10;99.90
15617;DHT22;7908;51.688;7.130;2023-04-06T06:11:39;-1.00;99.90
15617;DHT22;7908;51.688;7.130;2023-04-06T06:14:08;-1.00;99.90
15617;DHT22;7908;51.688;7.130;2023-04-06T06:16:38;-0.90;99.90
15617;DHT22;7908;51.688;7.130;2023-04-06T06:19:07;-0.80;99.90
15617;DHT22;7908;51.688;7.130;2023-04-06T06:21:36;-0.70;99.90
15617;DHT22;7908;51.688;7.130;2023-04-06T06:24:05;-0.60;99.90
15617;DHT22;7908;51.688;7.130;2023-04-06T06:26:34;-0.50;99.90
15617;DHT22;7908;51.688;7.130;2023-04-06T06:29:04;-0.40;99.90
15617;DHT22;7908;51.688;7.130;2023-04-06T06:31:33;-0.30;99.90
15617;DHT22;7908;51.688;7.130;2023-04-06T06:34:04;-0.20;99.90
15617;DHT22;7908;51.688;7.130;2023-04-06T06:36:33;-0.20;99.90
15617;DHT22;7908;51.688;7.130;2023-04-06T06:39:02;0.00;99.90
15617;DHT22;7908;51.688;7.130;2023-04-06T06:41:31;0.10;99.90
15617;DHT22;7908;51.688;7.130;2023-04-06T06:44:00;0.20;99.90
15617;DHT22;7908;51.688;7.130;2023-04-06T06:46:29;0.30;99.90
15617;DHT22;7908;51.688;7.130;2023-04-06T06:48:58;0.50;99.90
15617;DHT22;7908;51.688;7.130;2023-04-06T06:51:29;0.60;99.90
15617;DHT22;7908;51.688;7.130;2023-04-06T06:53:58;0.70;99.90
15617;DHT22;7908;51.688;7.130;2023-04-06T06:56:26;0.90;99.90
15617;DHT22;7908;51.688;7.130;2023-04-06T06:58:56;1.00;99.90
15617;DHT22;7908;51.688;7.130;2023-04-06T07:01:24;1.20;99.90
15617;DHT22;7908;51.688;7.130;2023-04-06T07:03:56;1.30;99.90
15617;DHT22;7908;51.688;7.130;2023-04-06T07:06:25;1.40;99.90
15617;DHT22;7908;51.688;7.130;2023-04-06T07:08:55;1.60;99.90
15617;DHT22;7908;51.688;7.130;2023-04-06T07:11:24;1.70;99.90
15617;DHT22;7908;51.688;7.130;2023-04-06T07:13:53;1.90;99.90
15617;DHT22;7908;51.688;7.130;2023-04-06T07:16:22;2.10;99.90
15617;DHT22;7908;51.688;7.130;2023-04-06T07:18:51;2.20;99.90
15617;DHT22;7908;51.688;7.130;2023-04-06T07:21:20;2.30;99.90
15617;DHT22;7908;51.688;7.130;2023-04-06T07:23:49;2.50;99.90
15617;DHT22;7908;51.688;7.130;2023-04-06T07:26:19;2.60;99.90
15617;DHT22;7908;51.688;7.130;2023-04-06T07:28:48;2.80;99.90
15617;DHT22;7908;51.688;7.130;2023-04-06T07:31:17;2.90;99.90
15617;DHT22;7908;51.688;7.130;2023-04-06T07:33:46;3.10;99.90
15617;DHT22;7908;51.688;7.130;2023-04-06T07:36:15;3.40;99.90
15617;DHT22;7908;51.688;7.130;2023-04-06T07:38:45;3.70;99.90
15617;DHT22;7908;51.688;7.130;2023-04-06T07:41:15;3.90;99.90
15617;DHT22;7908;51.688;7.130;2023-04-06T07:43:46;4.30;99.90
15617;DHT22;7908;51.688;7.130;2023-04-06T07:46:15;4.50;99.90
15617;DHT22;7908;51.688;7.130;2023-04-06T07:48:44;4.70;99.90
15617;DHT22;7908;51.688;7.130;2023-04-06T07:51:12;4.90;99.90
15617;DHT22;7908;51.688;7.130;2023-04-06T07:53:42;5.00;99.90
15617;DHT22;7908;51.688;7.130;2023-04-06T07:56:13;5.10;99.90
15617;DHT22;7908;51.688;7.130;2023-04-06T07:58:42;5.40;99.90
15617;DHT22;7908;51.688;7.130;2023-04-06T08:01:12;5.60;99.90
15617;DHT22;7908;51.688;7.130;2023-04-06T08:03:41;5.80;99.90
15617;DHT22;7908;51.688;7.130;2023-04-06T08:06:11;6.00;99.90
15617;DHT22;7908;51.688;7.130;2023-04-06T08:08:41;6.10;99.90
15617;DHT22;7908;51.688;7.130;2023-04-06T08:11:10;6.40;99.90
15617;DHT22;7908;51.688;7.130;2023-04-06T08:13:38;6.40;99.90
15617;DHT22;7908;51.688;7.130;2023-04-06T08:16:07;6.50;99.90
15617;DHT22;7908;51.688;7.130;2023-04-06T08:18:38;6.60;99.90
15617;DHT22;7908;51.688;7.130;2023-04-06T08:21:07;6.80;99.90
15617;DHT22;7908;51.688;7.130;2023-04-06T08:23:36;6.90;99.90
15617;DHT22;7908;51.688;7.130;2023-04-06T08:26:05;7.00;99.90
15617;DHT22;7908;51.688;7.130;2023-04-06T08:28:34;7.10;99.90
15617;DHT22;7908;51.688;7.130;2023-04-06T08:31:06;7.30;99.90
15617;DHT22;7908;51.688;7.130;2023-04-06T08:33:35;7.50;99.90
15617;DHT22;7908;51.688;7.130;2023-04-06T08:36:13;7.80;99.90
15617;DHT22;7908;51.688;7.130;2023-04-06T08:38:42;7.90;99.90
15617;DHT22;7908;51.688;7.130;2023-04-06T08:41:13;8.10;99.90
15617;DHT22;7908;51.688;7.130;2023-04-06T08:43:46;8.30;99.90
15617;DHT22;7908;51.688;7.130;2023-04-06T08:46:16;8.40;99.90
15617;DHT22;7908;51.688;7.130;2023-04-06T08:48:45;8.50;99.90
15617;DHT22;7908;51.688;7.130;2023-04-06T08:51:19;8.70;99.90
15617;DHT22;7908;51.688;7.130;2023-04-06T08:53:48;8.90;99.90
15617;DHT22;7908;51.688;7.130;2023-04-06T08:56:18;9.00;99.90
15617;DHT22;7908;51.688;7.130;2023-04-06T08:58:48;9.20;99.90
15617;DHT22;7908;51.688;7.130;2023-04-06T09:01:22;9.30;99.90
15617;DHT22;7908;51.688;7.130;2023-04-06T09:03:55;9.50;99.90
15617;DHT22;7908;51.688;7.130;2023-04-06T09:06:26;9.70;99.90
15617;DHT22;7908;51.688;7.130;2023-04-06T09:08:56;9.80;99.90
15617;DHT22;7908;51.688;7.130;2023-04-06T09:11:25;10.00;99.90
15617;DHT22;7908;51.688;7.130;2023-04-06T09:13:55;10.20;99.90
15617;DHT22;7908;51.688;7.130;2023-04-06T09:16:25;10.30;99.90
15617;DHT22;7908;51.688;7.130;2023-04-06T09:18:54;10.50;99.20
15617;DHT22;7908;51.688;7.130;2023-04-06T09:21:23;10.50;98.90
15617;DHT22;7908;51.688;7.130;2023-04-06T09:24:00;10.60;97.60
15617;DHT22;7908;51.688;7.130;2023-04-06T09:26:29;10.80;98.10
15617;DHT22;7908;51.688;7.130;2023-04-06T09:29:00;10.90;98.30
15617;DHT22;7908;51.688;7.130;2023-04-06T09:31:31;11.00;97.90
15617;DHT22;7908;51.688;7.130;2023-04-06T09:34:02;11.00;97.00
15617;DHT22;7908;51.688;7.130;2023-04-06T09:36:32;11.10;96.60
15617;DHT22;7908;51.688;7.130;2023-04-06T09:39:04;11.10;96.30
15617;DHT22;7908;51.688;7.130;2023-04-06T09:41:34;11.20;95.90
15617;DHT22;7908;51.688;7.130;2023-04-06T09:44:05;11.20;94.40
15617;DHT22;7908;51.688;7.130;2023-04-06T09:46:35;11.10;94.80
15617;DHT22;7908;51.688;7.130;2023-04-06T09:49:27;11.20;94.50
15617;DHT22;7908;51.688;7.130;2023-04-06T09:51:58;11.30;94.70
15617;DHT22;7908;51.688;7.130;2023-04-06T09:54:30;11.30;93.80
15617;DHT22;7908;51.688;7.130;2023-04-06T09:57:04;11.30;92.10
15617;DHT22;7908;51.688;7.130;2023-04-06T09:59:42;11.30;93.10
15617;DHT22;7908;51.688;7.130;2023-04-06T10:02:18;11.40;93.10
15617;DHT22;7908;51.688;7.130;2023-04-06T10:04:56;11.40;92.10
15617;DHT22;7908;51.688;7.130;2023-04-06T10:07:27;11.50;92.70
15617;DHT22;7908;51.688;7.130;2023-04-06T10:09:59;11.50;90.70
15617;DHT22;7908;51.688;7.130;2023-04-06T10:12:29;11.50;90.70
15617;DHT22;7908;51.688;7.130;2023-04-06T10:14:59;11.60;91.10
15617;DHT22;7908;51.688;7.130;2023-04-06T10:17:27;11.60;91.00
15617;DHT22;7908;51.688;7.130;2023-04-06T10:20:02;11.60;88.50
15617;DHT22;7908;51.688;7.130;2023-04-06T10:22:36;11.60;90.00
15617;DHT22;7908;51.688;7.130;2023-04-06T10:25:09;11.60;88.90
15617;DHT22;7908;51.688;7.130;2023-04-06T10:27:39;11.60;88.20
15617;DHT22;7908;51.688;7.130;2023-04-06T10:30:08;11.70;89.40
15617;DHT22;7908;51.688;7.130;2023-04-06T10:32:38;11.90;90.60
15617;DHT22;7908;51.688;7.130;2023-04-06T10:35:08;12.00;90.50
15617;DHT22;7908;51.688;7.130;2023-04-06T10:37:47;12.20;90.20
15617;DHT22;7908;51.688;7.130;2023-04-06T10:40:22;12.20;88.20
15617;DHT22;7908;51.688;7.130;2023-04-06T10:42:53;12.30;89.40
15617;DHT22;7908;51.688;7.130;2023-04-06T10:45:24;12.30;89.70
15617;DHT22;7908;51.688;7.130;2023-04-06T10:47:53;12.40;89.70
15617;DHT22;7908;51.688;7.130;2023-04-06T10:50:23;12.50;90.00
15617;DHT22;7908;51.688;7.130;2023-04-06T10:53:00;12.60;90.20
15617;DHT22;7908;51.688;7.130;2023-04-06T10:55:31;12.70;89.40
15617;DHT22;7908;51.688;7.130;2023-04-06T10:58:00;12.70;87.60
15617;DHT22;7908;51.688;7.130;2023-04-06T11:00:30;12.70;86.80
15617;DHT22;7908;51.688;7.130;2023-04-06T11:14:56;13.00;85.00
15617;DHT22;7908;51.688;7.130;2023-04-06T11:17:29;13.10;84.50
15617;DHT22;7908;51.688;7.130;2023-04-06T11:19:59;13.20;82.40
15617;DHT22;7908;51.688;7.130;2023-04-06T11:22:28;13.20;83.70
15617;DHT22;7908;51.688;7.130;2023-04-06T11:25:05;13.30;81.00
15617;DHT22;7908;51.688;7.130;2023-04-06T11:27:37;13.40;83.10
15617;DHT22;7908;51.688;7.130;2023-04-06T11:30:09;13.50;82.60
15617;DHT22;7908;51.688;7.130;2023-04-06T11:32:40;13.60;81.30
15617;DHT22;7908;51.688;7.130;2023-04-06T11:35:20;13.60;81.40
15617;DHT22;7908;51.688;7.130;2023-04-06T11:37:49;13.70;82.70
15617;DHT22;7908;51.688;7.130;2023-04-06T11:40:21;13.70;82.30
15617;DHT22;7908;51.688;7.130;2023-04-06T11:42:55;13.80;82.40
15617;DHT22;7908;51.688;7.130;2023-04-06T11:45:27;13.80;81.50
15617;DHT22;7908;51.688;7.130;2023-04-06T11:47:56;13.80;82.40
15617;DHT22;7908;51.688;7.130;2023-04-06T11:50:32;14.00;84.30
15617;DHT22;7908;51.688;7.130;2023-04-06T11:53:02;14.00;82.40
15617;DHT22;7908;51.688;7.130;2023-04-06T11:55:37;14.00;81.90
15617;DHT22;7908;51.688;7.130;2023-04-06T11:58:07;14.00;83.40
15617;DHT22;7908;51.688;7.130;2023-04-06T12:00:37;14.00;85.50
15617;DHT22;7908;51.688;7.130;2023-04-06T12:03:06;14.10;83.20
15617;DHT22;7908;51.688;7.130;2023-04-06T12:05:35;14.20;83.80
15617;DHT22;7908;51.688;7.130;2023-04-06T12:08:04;14.20;83.50
15617;DHT22;7908;51.688;7.130;2023-04-06T12:10:33;14.20;82.90
15617;DHT22;7908;51.688;7.130;2023-04-06T12:13:02;14.20;83.10
15617;DHT22;7908;51.688;7.130;2023-04-06T12:15:31;14.30;82.80
15617;DHT22;7908;51.688;7.130;2023-04-06T12:18:02;14.30;83.20
15617;DHT22;7908;51.688;7.130;2023-04-06T12:20:31;14.40;80.90
15617;DHT22;7908;51.688;7.130;2023-04-06T12:23:00;14.40;80.30
15617;DHT22;7908;51.688;7.130;2023-04-06T12:25:29;14.40;82.90
15617;DHT22;7908;51.688;7.130;2023-04-06T12:27:59;14.40;81.20
15617;DHT22;7908;51.688;7.130;2023-04-06T12:30:28;14.50;82.70
15617;DHT22;7908;51.688;7.130;2023-04-06T12:32:59;14.60;82.30
15617;DHT22;7908;51.688;7.130;2023-04-06T12:35:33;14.70;81.90
15617;DHT22;7908;51.688;7.130;2023-04-06T12:38:03;14.80;81.00
15617;DHT22;7908;51.688;7.130;2023-04-06T12:40:36;14.80;81.50
15617;DHT22;7908;51.688;7.130;2023-04-06T12:43:06;14.80;81.10
15617;DHT22;7908;51.688;7.130;2023-04-06T12:45:36;14.90;81.90
15617;DHT22;7908;51.688;7.130;2023-04-06T12:48:05;15.00;80.90
15617;DHT22;7908;51.688;7.130;2023-04-06T12:50:35;15.00;82.00
15617;DHT22;7908;51.688;7.130;2023-04-06T12:53:05;15.00;81.50
15617;DHT22;7908;51.688;7.130;2023-04-06T12:55:34;15.00;82.00
15617;DHT22;7908;51.688;7.130;2023-04-06T12:58:03;15.00;81.90
15617;DHT22;7908;51.688;7.130;2023-04-06T13:00:32;14.90;79.30
15617;DHT22;7908;51.688;7.130;2023-04-06T13:03:02;14.90;81.50
15617;DHT22;7908;51.688;7.130;2023-04-06T13:05:45;14.90;81.50
15617;DHT22;7908;51.688;7.130;2023-04-06T13:08:15;15.00;82.30
15617;DHT22;7908;51.688;7.130;2023-04-06T13:10:48;15.00;83.10
15617;DHT22;7908;51.688;7.130;2023-04-06T13:13:17;15.10;82.10
15617;DHT22;7908;51.688;7.130;2023-04-06T13:15:47;15.00;83.90
15617;DHT22;7908;51.688;7.130;2023-04-06T13:18:17;15.00;82.40
15617;DHT22;7908;51.688;7.130;2023-04-06T13:20:48;14.90;83.10
15617;DHT22;7908;51.688;7.130;2023-04-06T13:23:18;14.80;82.20
15617;DHT22;7908;51.688;7.130;2023-04-06T13:25:48;14.80;84.50
15617;DHT22;7908;51.688;7.130;2023-04-06T13:28:16;14.70;82.60
15617;DHT22;7908;51.688;7.130;2023-04-06T13:30:48;14.60;85.20
15617;DHT22;7908;51.688;7.130;2023-04-06T13:33:17;14.50;84.40
15617;DHT22;7908;51.688;7.130;2023-04-06T13:35:47;14.50;83.80
15617;DHT22;7908;51.688;7.130;2023-04-06T13:38:18;14.40;84.80
15617;DHT22;7908;51.688;7.130;2023-04-06T13:40:48;14.40;84.40
15617;DHT22;7908;51.688;7.130;2023-04-06T13:43:18;14.30;84.40
15617;DHT22;7908;51.688;7.130;2023-04-06T13:45:51;14.20;84.60
15617;DHT22;7908;51.688;7.130;2023-04-06T13:48:22;14.10;83.90
15617;DHT22;7908;51.688;7.130;2023-04-06T13:50:54;14.10;84.80
15617;DHT22;7908;51.688;7.130;2023-04-06T13:53:23;14.00;86.60
15617;DHT22;7908;51.688;7.130;2023-04-06T13:55:53;14.10;85.20
15617;DHT22;7908;51.688;7.130;2023-04-06T13:58:22;13.90;85.80
15617;DHT22;7908;51.688;7.130;2023-04-06T14:00:52;13.90;86.00
15617;DHT22;7908;51.688;7.130;2023-04-06T14:03:22;13.80;86.60
15617;DHT22;7908;51.688;7.130;2023-04-06T14:05:51;13.70;86.90
15617;DHT22;7908;51.688;7.130;2023-04-06T14:08:22;13.50;85.60
15617;DHT22;7908;51.688;7.130;2023-04-06T14:10:51;13.40;86.70
15617;DHT22;7908;51.688;7.130;2023-04-06T14:13:21;13.40;87.40
15617;DHT22;7908;51.688;7.130;2023-04-06T14:15:53;13.40;88.40
15617;DHT22;7908;51.688;7.130;2023-04-06T14:18:23;13.40;89.00
15617;DHT22;7908;51.688;7.130;2023-04-06T14:20:54;13.50;88.70
15617;DHT22;7908;51.688;7.130;2023-04-06T14:23:25;13.50;88.30
15617;DHT22;7908;51.688;7.130;2023-04-06T14:26:01;13.50;89.10
15617;DHT22;7908;51.688;7.130;2023-04-06T14:28:32;13.60;89.30
15617;DHT22;7908;51.688;7.130;2023-04-06T14:31:02;13.60;89.30
15617;DHT22;7908;51.688;7.130;2023-04-06T14:33:32;13.50;90.70
15617;DHT22;7908;51.688;7.130;2023-04-06T14:36:02;13.50;91.10
15617;DHT22;7908;51.688;7.130;2023-04-06T14:38:33;13.40;91.80
15617;DHT22;7908;51.688;7.130;2023-04-06T14:41:03;13.40;92.10
15617;DHT22;7908;51.688;7.130;2023-04-06T14:43:32;13.40;92.10
15617;DHT22;7908;51.688;7.130;2023-04-06T14:46:02;13.20;92.70
15617;DHT22;7908;51.688;7.130;2023-04-06T14:48:31;13.10;93.60
15617;DHT22;7908;51.688;7.130;2023-04-06T14:51:02;12.90;93.80
15617;DHT22;7908;51.688;7.130;2023-04-06T14:53:32;12.70;94.10
15617;DHT22;7908;51.688;7.130;2023-04-06T14:56:01;12.60;94.60
15617;DHT22;7908;51.688;7.130;2023-04-06T14:58:30;12.40;95.60
15617;DHT22;7908;51.688;7.130;2023-04-06T15:01:00;12.40;96.30
15617;DHT22;7908;51.688;7.130;2023-04-06T15:03:30;12.40;97.10
15617;DHT22;7908;51.688;7.130;2023-04-06T15:05:59;12.30;97.70
15617;DHT22;7908;51.688;7.130;2023-04-06T15:08:28;12.20;97.50
15617;DHT22;7908;51.688;7.130;2023-04-06T15:11:00;12.20;97.70
15617;DHT22;7908;51.688;7.130;2023-04-06T15:13:30;12.10;98.70
15617;DHT22;7908;51.688;7.130;2023-04-06T15:15:59;12.10;97.80
15617;DHT22;7908;51.688;7.130;2023-04-06T15:18:28;12.10;98.00
15617;DHT22;7908;51.688;7.130;2023-04-06T15:20:57;12.00;98.40
15617;DHT22;7908;51.688;7.130;2023-04-06T15:23:29;12.10;99.60
15617;DHT22;7908;51.688;7.130;2023-04-06T15:26:03;12.00;99.70
15617;DHT22;7908;51.688;7.130;2023-04-06T15:28:32;12.00;99.90
15617;DHT22;7908;51.688;7.130;2023-04-06T15:31:01;12.00;99.90
15617;DHT22;7908;51.688;7.130;2023-04-06T15:33:33;11.90;99.90
15617;DHT22;7908;51.688;7.130;2023-04-06T15:36:06;11.80;99.90
15617;DHT22;7908;51.688;7.130;2023-04-06T15:38:37;11.70;99.90
15617;DHT22;7908;51.688;7.130;2023-04-06T15:41:08;11.70;99.90
15617;DHT22;7908;51.688;7.130;2023-04-06T15:43:39;11.60;99.90
15617;DHT22;7908;51.688;7.130;2023-04-06T15:46:08;11.50;99.90
15617;DHT22;7908;51.688;7.130;2023-04-06T15:48:39;11.50;99.90
15617;DHT22;7908;51.688;7.130;2023-04-06T15:51:09;11.30;99.90
15617;DHT22;7908;51.688;7.130;2023-04-06T15:53:38;11.20;99.90
15617;DHT22;7908;51.688;7.130;2023-04-06T15:56:12;11.10;99.90
15617;DHT22;7908;51.688;7.130;2023-04-06T15:58:44;11.10;99.90
15617;DHT22;7908;51.688;7.130;2023-04-06T16:01:14;11.00;99.90
15617;DHT22;7908;51.688;7.130;2023-04-06T16:03:44;11.00;99.90
15617;DHT22;7908;51.688;7.130;2023-04-06T16:06:13;10.90;99.90
15617;DHT22;7908;51.688;7.130;2023-04-06T16:08:42;10.80;99.90
15617;DHT22;7908;51.688;7.130;2023-04-06T16:11:15;10.80;99.90
15617;DHT22;7908;51.688;7.130;2023-04-06T16:13:45;10.80;99.90
15617;DHT22;7908;51.688;7.130;2023-04-06T16:16:23;10.80;99.90